Accueil
METAR-TAF:

METAR-TAF

Aéroports :

Koné, Nouvelle-Calédonie

Aérodrome de Koné

latitude: 21-03-12S, longitude: 164-50-18E, altitude: 7 m

METAR: absent

Heure: 17:57 (06:57 UTC)

Prévision

Le bulletin a été fait il y a 1 heure et 57 minutes, à 05:00 UTC
Prévision valable du 27 à 06 UTC au 28 à 06 UTC
Vent 10 kt de sud/sud-est
Visibilité 10 km ou plus
Nuages épars à une hauteur de 3000 ft
Evoluant progressivement
du 27 à 06 UTC au 27 à 08 UTC
Vent 3 kt de direction variable
Evoluant progressivement
du 27 à 22 UTC au 27 à 24 UTC
Vent 10 kt de sud/sud-est

TAF: NWWD 270500Z 2706/2806 16010KT 9999 SCT030 BECMG 2706/2708 VRB03KT BECMG 2722/2724 16010KT

Observations et prévisions météorologiques de plus de 4000 aéroports (messages METAR et TAF).

Les stations disponibles sont représentées par des disques jaunes et rouges sur la carte.

Passer la souris dessus pour voir le nom de la station.

Cliquer dessus pour voir les observations et prévisions météorologiques.

Pour changer de carte: cliquez sur les boutons verts avec une croix noire pour zoomer, sur le bouton vert avec un tiret pour effectuer un zoom arrière, ou sur les flèches vertes pour les cartes adjacentes.


METAR-TAF: